Time;durP1;ratioP1;P1;durP2;ratioP2;P2;SDS_P1;SDS_P2;PMS_P1;PMS_P2;Temp;Humidity;BMP_temperature;BMP_pressure;BME280_temperature;BME280_humidity;BME280_pressure;Samples;Min_cycle;Max_cycle;Signal;HPM_P1;HPM_P2
2023/01/25 00:01:16;;;;;;;19.60;8.30;;;;;;;;;;5017732;28;20104;-81
2023/01/25 00:03:42;;;;;;;18.73;9.00;;;;;;;;;;5019557;28;20099;-79
2023/01/25 00:06:08;;;;;;;13.77;6.63;;;;;;;;;;5021914;28;20033;-79
2023/01/25 00:08:34;;;;;;;22.58;8.52;;;;;;;;;;5020416;28;20540;-79
2023/01/25 00:11:00;;;;;;;15.10;7.80;;;;;;;;;;5023464;28;20021;-79
2023/01/25 00:13:26;;;;;;;19.88;9.13;;;;;;;;;;5020872;28;20026;-79
2023/01/25 00:15:52;;;;;;;27.70;9.60;;;;;;;;;;5021124;28;20025;-80
2023/01/25 00:18:18;;;;;;;16.55;7.47;;;;;;;;;;5027255;28;20452;-81
2023/01/25 00:20:44;;;;;;;23.77;9.45;;;;;;;;;;5021479;28;20022;-79
2023/01/25 00:23:10;;;;;;;15.70;8.20;;;;;;;;;;5021357;28;20034;-79
2023/01/25 00:25:36;;;;;;;19.67;7.78;;;;;;;;;;5018049;28;20125;-78
2023/01/25 00:28:02;;;;;;;17.38;8.07;;;;;;;;;;5019680;28;20033;-80
2023/01/25 00:30:28;;;;;;;18.50;9.05;;;;;;;;;;5019275;28;20084;-78
2023/01/25 00:33:01;;;;;;;14.27;6.22;;;;;;;;;;5014579;28;20735;-79
2023/01/25 00:35:30;;;;;;;20.05;8.65;;;;;;;;;;5024160;28;20528;-79
2023/01/25 00:37:56;;;;;;;18.92;8.25;;;;;;;;;;5020536;28;20476;-79
2023/01/25 00:40:22;;;;;;;19.77;8.10;;;;;;;;;;5021799;28;20059;-79
2023/01/25 00:42:48;;;;;;;27.55;10.63;;;;;;;;;;5012839;28;20040;-79
2023/01/25 00:45:14;;;;;;;19.58;8.35;;;;;;;;;;5023537;28;20041;-78
2023/01/25 00:47:40;;;;;;;19.35;7.10;;;;;;;;;;5022294;28;20033;-78
2023/01/25 00:50:07;;;;;;;17.52;8.13;;;;;;;;;;5018843;28;20478;-79
2023/01/25 00:52:33;;;;;;;14.98;7.43;;;;;;;;;;5021697;28;20036;-82
2023/01/25 00:54:59;;;;;;;18.83;8.48;;;;;;;;;;5021370;28;20026;-79
2023/01/25 00:57:25;;;;;;;22.60;8.63;;;;;;;;;;5020029;28;20041;-79
2023/01/25 00:59:51;;;;;;;22.83;10.10;;;;;;;;;;5017434;28;20021;-79
2023/01/25 01:02:17;;;;;;;19.77;7.47;;;;;;;;;;5017710;28;20451;-79
2023/01/25 01:04:43;;;;;;;20.38;8.38;;;;;;;;;;5023261;28;20038;-80
2023/01/25 01:07:10;;;;;;;17.90;7.75;;;;;;;;;;5024138;28;20501;-81
2023/01/25 01:09:36;;;;;;;20.75;8.35;;;;;;;;;;5020745;28;20549;-80
2023/01/25 01:12:02;;;;;;;19.75;8.38;;;;;;;;;;5018868;28;20104;-81
2023/01/25 01:14:28;;;;;;;20.80;10.60;;;2.70;99.90;;;;;;5018132;28;20021;-80
2023/01/25 01:16:54;;;;;;;19.92;8.32;;;;;;;;;;5022229;28;20106;-80
2023/01/25 01:19:20;;;;;;;22.88;9.02;;;;;;;;;;5017536;28;20132;-80
2023/01/25 01:21:45;;;;;;;21.17;8.32;;;;;;;;;;5022939;28;20071;-79
2023/01/25 01:24:11;;;;;;;17.65;8.40;;;;;;;;;;5029365;28;20018;-81
2023/01/25 01:26:37;;;;;;;12.73;7.35;;;;;;;;;;5027623;28;20417;-80
2023/01/25 01:29:04;;;;;;;22.35;10.23;;;;;;;;;;5019055;28;20487;-78
2023/01/25 01:31:29;;;;;;;20.80;8.85;;;;;;;;;;5022178;28;20033;-80
2023/01/25 01:33:57;;;;;;;15.55;8.40;;;;;;;;;;5023886;28;20047;-79
2023/01/25 01:36:24;;;;;;;23.95;7.72;;;;;;;;;;5024467;28;20045;-80
2023/01/25 01:38:50;;;;;;;18.65;7.68;;;;;;;;;;5024759;28;20561;-80
2023/01/25 01:41:16;;;;;;;19.55;8.45;;;;;;;;;;5023905;28;20278;-79
2023/01/25 01:43:42;;;;;;;20.63;9.38;;;;;;;;;;5025651;28;20036;-79
2023/01/25 01:46:22;;;;;;;21.90;8.82;;;;;;;;;;5025774;28;20025;-79
2023/01/25 01:49:07;;;;;;;21.40;8.13;;;;;;;;;;5025702;28;20037;-79
2023/01/25 01:51:33;;;;;;;19.60;9.18;;;;;;;;;;5024493;28;20036;-79
2023/01/25 01:54:19;;;;;;;17.80;8.70;;;;;;;;;;5023855;28;20029;-79
2023/01/25 01:56:45;;;;;;;21.98;7.97;;;;;;;;;;5020847;28;20072;-80
2023/01/25 01:59:11;;;;;;;18.25;7.57;;;;;;;;;;5024956;28;20068;-80
2023/01/25 02:01:38;;;;;;;15.40;7.18;;;;;;;;;;5021547;28;20113;-79
2023/01/25 02:04:04;;;;;;;26.30;8.95;;;;;;;;;;5024857;28;20658;-79
2023/01/25 02:06:43;;;;;;;29.83;7.82;;;;;;;;;;5025997;28;20029;-79
2023/01/25 02:09:10;;;;;;;18.42;7.57;;;;;;;;;;5026779;28;20079;-80
2023/01/25 02:11:37;;;;;;;20.70;7.50;;;;;;;;;;5017902;28;20034;-78
2023/01/25 02:14:03;;;;;;;19.52;8.05;;;;;;;;;;5024419;28;20062;-80
2023/01/25 02:16:29;;;;;;;21.73;8.57;;;;;;;;;;5024751;28;20034;-78
2023/01/25 02:18:56;;;;;;;19.17;7.63;;;;;;;;;;5028943;28;20563;-78
2023/01/25 02:21:23;;;;;;;21.45;8.18;;;;;;;;;;5029213;28;20056;-80
2023/01/25 02:23:55;;;;;;;20.13;8.82;;;;;;;;;;5022584;28;20041;-79
2023/01/25 02:26:22;;;;;;;27.30;7.38;;;;;;;;;;5025658;28;20021;-78
2023/01/25 02:28:54;;;;;;;24.40;7.75;;;;;;;;;;5018786;28;20040;-78
2023/01/25 02:31:20;;;;;;;16.40;7.10;;;;;;;;;;5024928;28;20055;-79
2023/01/25 02:33:46;;;;;;;16.75;7.60;;;;;;;;;;5029332;28;20109;-78
2023/01/25 02:36:11;;;;;;;19.08;6.90;;;;;;;;;;5026907;28;20053;-77
2023/01/25 02:38:42;;;;;;;18.90;9.57;;;;;;;;;;5019431;28;20041;-79
2023/01/25 02:41:10;;;;;;;19.13;7.65;;;;;;;;;;5022265;28;20037;-80
2023/01/25 02:43:37;;;;;;;22.60;6.75;;;;;;;;;;5027090;28;20025;-79
2023/01/25 02:46:09;;;;;;;24.33;7.75;;;;;;;;;;5019926;28;20906;-79
2023/01/25 02:48:35;;;;;;;18.52;8.57;;;;;;;;;;5024011;28;20118;-79
2023/01/25 02:51:01;;;;;;;17.02;8.18;;;;;;;;;;5025079;28;20222;-80
2023/01/25 02:53:27;;;;;;;22.60;9.95;;;;;;;;;;5021480;28;20036;-78
2023/01/25 02:55:53;;;;;;;19.77;8.10;;;;;;;;;;5028196;28;20041;-81
2023/01/25 02:58:19;;;;;;;22.80;8.18;;;;;;;;;;5023826;28;20095;-81
2023/01/25 03:00:45;;;;;;;17.38;9.10;;;;;;;;;;5023533;28;20029;-79
2023/01/25 03:03:11;;;;;;;19.30;7.15;;;;;;;;;;5028288;28;20025;-80
2023/01/25 03:05:37;;;;;;;12.85;7.13;;;;;;;;;;5026418;28;20029;-79
2023/01/25 03:08:03;;;;;;;27.75;9.00;;;;;;;;;;5028640;28;20549;-80
2023/01/25 03:10:29;;;;;;;18.02;7.97;;;;;;;;;;5022049;28;20036;-80
2023/01/25 03:12:55;;;;;;;26.35;8.75;;;;;;;;;;5021216;28;20029;-79
2023/01/25 03:15:21;;;;;;;20.88;7.72;;;;;;;;;;5023416;28;20089;-82
2023/01/25 03:17:47;;;;;;;18.10;8.07;;;;;;;;;;5025669;28;20045;-80
2023/01/25 03:20:13;;;;;;;16.55;6.13;;;;;;;;;;5026620;28;20060;-78
2023/01/25 03:22:39;;;;;;;16.63;7.40;;;;;;;;;;5017882;28;20025;-78
2023/01/25 03:25:05;;;;;;;13.93;6.60;;;;;;;;;;5022305;28;20025;-79
2023/01/25 03:27:31;;;;;;;20.15;8.23;;;;;;;;;;5023292;28;20036;-80
2023/01/25 03:29:57;;;;;;;18.23;8.55;;;;;;;;;;5011166;28;20022;-79
2023/01/25 03:32:23;;;;;;;17.67;6.97;;;;;;;;;;5015998;28;20061;-78
2023/01/25 03:34:49;;;;;;;17.50;6.82;;;;;;;;;;5023242;28;20021;-80
2023/01/25 03:37:15;;;;;;;17.77;7.82;;;;;;;;;;5026120;28;20180;-79
2023/01/25 03:39:41;;;;;;;18.60;6.53;;;;;;;;;;5010200;28;20030;-79
2023/01/25 03:42:07;;;;;;;16.27;7.53;;;;;;;;;;5023355;28;20025;-80
2023/01/25 03:44:33;;;;;;;18.35;7.55;;;;;;;;;;5021313;28;20049;-80
2023/01/25 03:46:59;;;;;;;22.45;8.07;;;;;;;;;;5023790;28;20485;-80
2023/01/25 03:49:24;;;;;;;18.02;7.55;;;1.60;99.90;;;;;;5022100;28;20116;-81
2023/01/25 03:51:50;;;;;;;11.52;6.35;;;;;;;;;;5020311;28;20033;-78
2023/01/25 03:54:16;;;;;;;15.38;6.60;;;;;;;;;;5023317;28;20061;-81
2023/01/25 03:56:42;;;;;;;15.63;6.25;;;;;;;;;;5021605;28;20543;-79
2023/01/25 03:59:09;;;;;;;19.08;6.45;;;;;;;;;;5022905;28;20028;-80
2023/01/25 04:01:35;;;;;;;18.55;7.00;;;;;;;;;;5020878;28;20094;-80
2023/01/25 04:04:01;;;;;;;16.80;7.13;;;;;;;;;;5023784;28;20029;-78
2023/01/25 04:06:27;;;;;;;15.23;7.20;;;;;;;;;;5020387;28;20029;-80
2023/01/25 04:08:53;;;;;;;14.55;5.88;;;;;;;;;;5022100;28;20038;-78
2023/01/25 04:11:19;;;;;;;12.05;6.35;;;;;;;;;;5018351;28;20013;-79
2023/01/25 04:13:45;;;;;;;18.08;6.78;;;;;;;;;;5024645;28;20121;-78
2023/01/25 04:16:11;;;;;;;14.85;6.75;;;;;;;;;;5019021;28;20159;-80
2023/01/25 04:18:38;;;;;;;15.27;5.13;;;;;;;;;;5022891;28;20033;-80
2023/01/25 04:21:04;;;;;;;17.77;5.53;;;;;;;;;;5020683;28;20108;-80
2023/01/25 04:23:31;;;;;;;9.93;6.22;;;;;;;;;;5020923;28;21749;-81
2023/01/25 04:25:59;;;;;;;16.50;6.40;;;2.30;99.90;;;;;;5019747;28;20025;-80
2023/01/25 04:28:25;;;;;;;21.80;6.72;;;;;;;;;;5021155;28;20039;-79
2023/01/25 04:30:52;;;;;;;15.85;7.95;;;;;;;;;;5012344;28;20025;-79
2023/01/25 04:33:18;;;;;;;15.43;6.13;;;;;;;;;;5023982;28;20021;-79
2023/01/25 04:35:44;;;;;;;16.80;6.78;;;;;;;;;;5023649;28;20402;-81
2023/01/25 04:38:10;;;;;;;16.75;5.68;;;;;;;;;;5020692;28;20040;-80
2023/01/25 04:40:37;;;;;;;14.82;7.45;;;;;;;;;;5019703;28;20086;-80
2023/01/25 04:43:03;;;;;;;23.05;7.15;;;;;;;;;;5021859;28;20040;-79
2023/01/25 04:45:29;;;;;;;20.45;8.68;;;;;;;;;;5021537;28;20034;-79
2023/01/25 04:47:59;;;;;;;19.55;7.05;;;;;;;;;;5019505;28;20560;-80
2023/01/25 04:50:25;;;;;;;20.63;8.55;;;;;;;;;;5021098;28;20486;-78
2023/01/25 04:52:51;;;;;;;15.52;7.15;;;;;;;;;;5018190;28;20028;-78
2023/01/25 04:55:17;;;;;;;16.23;6.45;;;;;;;;;;5021484;28;20504;-81
2023/01/25 04:57:43;;;;;;;16.52;5.78;;;;;;;;;;5021407;28;20433;-79
2023/01/25 05:00:09;;;;;;;15.90;5.43;;;;;;;;;;5019473;28;20025;-79
2023/01/25 05:02:35;;;;;;;17.33;6.57;;;;;;;;;;5014970;28;20073;-79
2023/01/25 05:05:01;;;;;;;14.02;4.45;;;;;;;;;;5028083;28;20048;-80
2023/01/25 05:07:27;;;;;;;11.90;5.05;;;;;;;;;;5026718;28;20029;-80
2023/01/25 05:09:53;;;;;;;17.42;6.50;;;;;;;;;;5020007;28;20052;-79
2023/01/25 05:12:19;;;;;;;12.98;5.80;;;;;;;;;;5022733;28;20021;-79
2023/01/25 05:14:45;;;;;;;14.23;6.55;;;;;;;;;;5025493;28;20072;-79
2023/01/25 05:17:11;;;;;;;15.50;7.03;;;;;;;;;;5017809;28;20076;-80
2023/01/25 05:19:37;;;;;;;17.00;6.53;;;;;;;;;;5015897;28;20030;-80
2023/01/25 05:22:06;;;;;;;12.13;6.18;;;;;;;;;;5023696;28;20460;-79
2023/01/25 05:24:33;;;;;;;13.77;5.07;;;1.90;99.90;;;;;;5020077;28;20026;-80
2023/01/25 05:27:00;;;;;;;17.30;7.25;;;;;;;;;;5024532;28;20041;-81
2023/01/25 05:29:27;;;;;;;16.55;6.45;;;;;;;;;;5018312;28;20040;-81
2023/01/25 05:31:53;;;;;;;13.30;6.20;;;;;;;;;;5011488;28;20038;-80
2023/01/25 05:34:19;;;;;;;16.30;6.82;;;;;;;;;;5017507;28;20030;-79
2023/01/25 05:36:45;;;;;;;11.00;4.82;;;;;;;;;;5006131;28;20539;-78
2023/01/25 05:39:11;;;;;;;18.45;7.47;;;;;;;;;;5010985;28;20631;-80
2023/01/25 05:41:37;;;;;;;13.32;5.47;;;;;;;;;;5015196;28;20025;-78
2023/01/25 05:44:03;;;;;;;14.88;6.72;;;;;;;;;;5018559;28;20034;-79
2023/01/25 05:46:29;;;;;;;14.30;6.53;;;;;;;;;;5018001;28;20124;-79
2023/01/25 05:48:55;;;;;;;10.68;4.72;;;;;;;;;;5014315;28;20022;-80
2023/01/25 05:51:21;;;;;;;15.05;6.43;;;;;;;;;;5017945;28;20052;-82
2023/01/25 05:53:47;;;;;;;10.20;4.20;;;;;;;;;;5016985;28;20041;-81
2023/01/25 05:56:13;;;;;;;15.95;6.40;;;;;;;;;;5016939;28;20028;-80
2023/01/25 05:58:39;;;;;;;28.48;12.32;;;;;;;;;;5022692;28;20425;-79
2023/01/25 06:01:06;;;;;;;32.63;11.48;;;;;;;;;;5030677;28;20494;-79
2023/01/25 06:03:32;;;;;;;16.83;6.45;;;;;;;;;;5027167;28;20025;-80
2023/01/25 06:06:01;;;;;;;13.38;6.95;;;;;;;;;;5023561;28;20068;-78
2023/01/25 06:08:27;;;;;;;9.63;5.05;;;;;;;;;;5026110;28;20037;-79
2023/01/25 06:10:53;;;;;;;8.32;4.35;;;;;;;;;;5026568;28;20041;-79
2023/01/25 06:13:21;;;;;;;16.27;6.28;;;;;;;;;;5021541;28;20087;-78
2023/01/25 06:15:53;;;;;;;13.23;5.45;;;;;;;;;;5026133;28;20030;-79
2023/01/25 06:18:19;;;;;;;14.57;6.65;;;;;;;;;;5018467;28;20033;-80
2023/01/25 06:20:45;;;;;;;12.60;6.07;;;;;;;;;;5030201;28;20337;-79
2023/01/25 06:23:11;;;;;;;12.65;6.50;;;;;;;;;;5030136;28;20303;-80
2023/01/25 06:25:37;;;;;;;9.57;4.32;;;;;;;;;;5026729;28;20033;-79
2023/01/25 06:28:03;;;;;;;14.68;5.88;;;;;;;;;;5029121;28;20060;-79
2023/01/25 06:30:29;;;;;;;14.55;6.10;;;;;;;;;;5033181;28;20025;-78
2023/01/25 06:32:57;;;;;;;14.05;5.78;;;;;;;;;;5031524;28;20496;-80
2023/01/25 06:35:23;;;;;;;9.77;4.10;;;;;;;;;;5034806;28;20549;-80
2023/01/25 06:37:49;;;;;;;8.27;4.43;;;;;;;;;;5026582;28;20509;-80
2023/01/25 06:40:16;;;;;;;9.65;4.82;;;;;;;;;;5026781;28;20033;-79
2023/01/25 06:42:44;;;;;;;9.00;4.18;;;;;;;;;;5031765;28;20124;-80
2023/01/25 06:45:10;;;;;;;12.48;5.65;;;;;;;;;;5033478;28;20029;-79
2023/01/25 06:47:36;;;;;;;10.32;4.40;;;;;;;;;;5024350;28;20464;-80
2023/01/25 06:50:02;;;;;;;14.25;5.07;;;;;;;;;;5025134;28;20025;-78
2023/01/25 06:52:30;;;;;;;14.15;5.10;;;;;;;;;;5032616;28;20029;-79
2023/01/25 06:54:56;;;;;;;12.50;5.95;;;;;;;;;;5031280;28;20116;-79
2023/01/25 06:57:22;;;;;;;16.75;5.80;;;;;;;;;;5028876;28;20516;-79
2023/01/25 06:59:48;;;;;;;14.68;5.57;;;;;;;;;;5031469;28;20505;-78
2023/01/25 07:02:14;;;;;;;12.45;5.05;;;1.90;99.90;;;;;;5028520;28;20420;-78
2023/01/25 07:04:41;;;;;;;15.60;5.40;;;;;;;;;;5027308;28;20029;-81
2023/01/25 07:07:10;;;;;;;14.13;5.80;;;;;;;;;;5031136;28;20025;-80
2023/01/25 07:09:36;;;;;;;13.23;6.20;;;;;;;;;;5023087;28;20032;-79
2023/01/25 07:12:03;;;;;;;14.18;5.55;;;;;;;;;;5028036;28;20029;-81
2023/01/25 07:14:29;;;;;;;15.30;5.35;;;;;;;;;;5031019;28;20037;-81
2023/01/25 07:16:55;;;;;;;14.77;7.03;;;;;;;;;;5029550;28;20531;-80
2023/01/25 07:19:21;;;;;;;16.45;5.85;;;;;;;;;;5028507;28;20699;-80
2023/01/25 07:21:48;;;;;;;19.10;7.75;;;;;;;;;;5023726;28;20042;-80
2023/01/25 07:24:16;;;;;;;9.63;5.25;;;;;;;;;;5029026;28;20029;-77
2023/01/25 07:26:42;;;;;;;11.68;5.05;;;;;;;;;;5021353;28;20030;-78
2023/01/25 07:29:11;;;;;;;17.38;7.10;;;;;;;;;;5026464;28;20120;-78
2023/01/25 07:31:37;;;;;;;19.60;8.52;;;;;;;;;;5032201;28;20021;-80
2023/01/25 07:34:03;;;;;;;24.30;7.72;;;;;;;;;;5028833;28;20098;-81
2023/01/25 07:36:29;;;;;;;14.88;5.70;;;;;;;;;;5027364;28;20036;-80
2023/01/25 07:38:56;;;;;;;9.55;4.28;;;;;;;;;;5022679;28;20044;-79
2023/01/25 07:41:22;;;;;;;10.80;4.70;;;;;;;;;;5027963;28;20038;-81
2023/01/25 07:43:48;;;;;;;17.58;7.95;;;;;;;;;;5026037;28;20026;-79
2023/01/25 07:46:15;;;;;;;16.65;7.20;;;;;;;;;;5027813;28;20029;-80
2023/01/25 07:48:44;;;;;;;14.75;5.55;;;;;;;;;;5028028;28;20436;-80
2023/01/25 07:51:10;;;;;;;15.73;4.65;;;;;;;;;;5028739;28;20040;-79
2023/01/25 07:53:37;;;;;;;15.45;6.57;;;;;;;;;;5025551;28;20021;-80
2023/01/25 07:56:03;;;;;;;15.50;4.38;;;;;;;;;;5030061;28;20028;-80
2023/01/25 07:58:29;;;;;;;15.45;5.05;;;;;;;;;;5028329;28;20025;-80
2023/01/25 08:00:55;;;;;;;16.77;5.38;;;;;;;;;;5028252;28;20057;-79
2023/01/25 08:03:21;;;;;;;15.10;5.50;;;;;;;;;;5024093;28;20029;-79
2023/01/25 08:05:48;;;;;;;10.80;5.00;;;;;;;;;;5030001;28;20532;-80
2023/01/25 08:08:14;;;;;;;12.10;4.15;;;;;;;;;;5026945;28;20034;-80
2023/01/25 08:10:40;;;;;;;13.15;4.63;;;;;;;;;;5027745;28;20021;-79
2023/01/25 08:13:06;;;;;;;14.25;5.03;;;;;;;;;;5033184;28;20091;-80
2023/01/25 08:15:32;;;;;;;8.75;3.88;;;;;;;;;;5027605;28;20124;-81
2023/01/25 08:18:01;;;;;;;9.25;4.43;;;;;;;;;;5020357;28;20457;-79
2023/01/25 08:20:27;;;;;;;10.93;4.75;;;;;;;;;;5020794;28;20033;-79
2023/01/25 08:22:53;;;;;;;11.68;4.72;;;;;;;;;;5025217;28;20025;-79
2023/01/25 08:25:19;;;;;;;13.75;4.72;;;;;;;;;;5027459;28;20040;-80
2023/01/25 08:27:45;;;;;;;10.50;4.10;;;;;;;;;;5024199;28;20033;-79
2023/01/25 08:30:11;;;;;;;18.42;5.40;;;;;;;;;;5026208;28;20013;-79
2023/01/25 08:32:38;;;;;;;17.85;6.10;;;;;;;;;;5025738;28;20120;-79
2023/01/25 08:35:04;;;;;;;10.77;5.10;;;;;;;;;;5024078;28;20029;-79
2023/01/25 08:37:30;;;;;;;10.00;4.32;;;;;;;;;;5023475;28;20041;-80
2023/01/25 08:39:56;;;;;;;9.32;4.10;;;;;;;;;;5024774;28;20826;-80
2023/01/25 08:42:23;;;;;;;11.85;4.63;;;;;;;;;;5023941;28;20022;-79
2023/01/25 08:44:49;;;;;;;14.05;4.32;;;;;;;;;;5030966;28;20068;-80
2023/01/25 08:47:15;;;;;;;13.70;5.88;;;;;;;;;;5028220;28;20057;-80
2023/01/25 08:49:41;;;;;;;14.60;4.68;;;;;;;;;;5027925;28;20025;-81
2023/01/25 08:52:06;;;;;;;14.85;4.53;;;;;;;;;;5023256;28;20034;-80
2023/01/25 08:54:32;;;;;;;9.50;4.00;;;;;;;;;;5025579;28;20101;-81
2023/01/25 08:57:00;;;;;;;11.45;5.07;;;2.00;99.90;;;;;;5024734;28;20044;-80
2023/01/25 08:59:26;;;;;;;11.57;5.55;;;;;;;;;;5027175;28;20132;-80
2023/01/25 09:01:52;;;;;;;10.48;4.63;;;;;;;;;;5023464;28;20522;-79
2023/01/25 09:04:18;;;;;;;17.17;4.40;;;;;;;;;;5027123;28;20033;-79
2023/01/25 09:06:45;;;;;;;14.20;4.88;;;;;;;;;;5025686;28;20048;-80
2023/01/25 09:09:12;;;;;;;12.15;4.68;;;;;;;;;;5020403;28;20104;-79
2023/01/25 09:11:39;;;;;;;13.90;5.53;;;;;;;;;;5023760;28;20021;-80
2023/01/25 09:14:05;;;;;;;11.20;3.95;;;;;;;;;;5038346;28;20029;-79
2023/01/25 09:16:31;;;;;;;17.38;5.70;;;;;;;;;;5045670;28;20014;-80
2023/01/25 09:19:02;;;;;;;11.88;5.25;;;2.10;99.90;;;;;;5042803;28;20045;-78
2023/01/25 09:21:28;;;;;;;13.13;4.22;;;;;;;;;;5046540;28;20048;-79
2023/01/25 09:23:54;;;;;;;13.52;5.35;;;;;;;;;;5028260;28;20422;-79
2023/01/25 09:26:20;;;;;;;9.07;4.65;;;;;;;;;;5026381;28;20026;-78
2023/01/25 09:28:47;;;;;;;13.75;5.28;;;;;;;;;;5023612;28;20032;-80
2023/01/25 09:31:13;;;;;;;14.30;4.13;;;;;;;;;;5030740;28;20124;-80
2023/01/25 09:33:39;;;;;;;15.35;5.32;;;2.40;99.90;;;;;;5031620;28;20500;-81
2023/01/25 09:36:06;;;;;;;13.68;5.78;;;2.20;99.90;;;;;;5026772;28;20032;-80
2023/01/25 09:38:32;;;;;;;12.18;5.38;;;;;;;;;;5032468;28;20514;-79
2023/01/25 09:41:04;;;;;;;14.98;5.38;;;;;;;;;;5033305;28;20095;-80
2023/01/25 09:43:51;;;;;;;10.25;4.85;;;2.50;99.90;;;;;;5029166;28;20056;-78
2023/01/25 09:46:39;;;;;;;12.93;4.35;;;3.00;99.90;;;;;;5030017;28;20033;-79
2023/01/25 09:49:23;;;;;;;11.30;4.72;;;;;;;;;;5031175;28;20034;-79
2023/01/25 09:51:57;;;;;;;12.70;4.60;;;;;;;;;;5026386;28;20033;-80
2023/01/25 09:54:24;;;;;;;25.15;7.22;;;;;;;;;;5032336;28;20033;-79
2023/01/25 09:56:50;;;;;;;18.45;6.32;;;2.10;99.90;;;;;;5032263;28;20025;-80
2023/01/25 09:59:18;;;;;;;14.27;5.90;;;;;;;;;;5028765;28;20032;-80
2023/01/25 10:01:47;;;;;;;14.32;5.68;;;;;;;;;;5031481;28;20018;-81
2023/01/25 10:04:18;;;;;;;10.85;3.92;;;;;;;;;;5033217;28;20124;-79
2023/01/25 10:06:50;;;;;;;11.10;5.40;;;2.30;99.90;;;;;;5029311;28;20033;-80
2023/01/25 10:09:26;;;;;;;13.15;5.60;;;;;;;;;;5023827;28;20025;-79
2023/01/25 10:11:52;;;;;;;21.75;6.10;;;;;;;;;;5030146;28;20036;-78
2023/01/25 10:14:18;;;;;;;28.65;6.45;;;;;;;;;;5025751;28;20655;-79
2023/01/25 10:16:52;;;;;;;14.88;5.82;;;;;;;;;;5021881;28;20066;-79
2023/01/25 10:19:51;;;;;;;20.83;6.40;;;2.30;99.90;;;;;;5030295;28;20140;-79
2023/01/25 10:22:23;;;;;;;18.83;5.22;;;;;;;;;;5027368;28;20029;-79
2023/01/25 10:25:12;;;;;;;20.02;6.03;;;;;;;;;;5030303;28;20470;-79
2023/01/25 10:27:44;;;;;;;11.30;3.72;;;;;;;;;;5022649;28;20033;-78
2023/01/25 10:30:20;;;;;;;18.17;5.75;;;;;;;;;;5033352;28;21130;-79
2023/01/25 10:32:46;;;;;;;14.38;5.55;;;;;;;;;;5025738;28;20033;-78
2023/01/25 10:35:16;;;;;;;17.52;6.57;;;3.40;99.90;;;;;;5028558;28;20032;-79
2023/01/25 10:37:42;;;;;;;13.35;4.97;;;;;;;;;;5025192;28;20041;-77
2023/01/25 10:40:11;;;;;;;19.80;7.13;;;;;;;;;;5030206;28;20029;-78
2023/01/25 10:43:06;;;;;;;26.95;9.00;;;;;;;;;;5029403;28;20497;-79
2023/01/25 10:45:32;;;;;;;12.10;4.68;;;;;;;;;;5020708;28;20049;-79
2023/01/25 10:48:03;;;;;;;18.70;7.40;;;;;;;;;;5031973;28;20028;-78
2023/01/25 10:50:41;;;;;;;23.08;6.88;;;;;;;;;;5027127;28;20026;-79
2023/01/25 10:53:24;;;;;;;11.68;4.43;;;2.60;99.90;;;;;;5026831;28;20025;-78
2023/01/25 10:55:59;;;;;;;13.43;4.60;;;3.20;99.90;;;;;;5028522;28;20025;-78
2023/01/25 10:58:32;;;;;;;9.27;4.60;;;;;;;;;;5026688;28;20048;-78
2023/01/25 11:00:58;;;;;;;12.70;4.03;;;2.00;99.90;;;;;;5029686;28;20021;-79
2023/01/25 11:03:35;;;;;;;6.25;3.40;;;2.40;99.90;;;;;;5027795;28;20059;-79
2023/01/25 11:06:02;;;;;;;15.20;6.50;;;;;;;;;;5024078;28;20022;-79
2023/01/25 11:08:31;;;;;;;12.55;5.97;;;;;;;;;;5026429;28;20546;-79
2023/01/25 11:10:57;;;;;;;16.02;4.90;;;;;;;;;;5026585;28;20775;-79
2023/01/25 11:13:32;;;;;;;15.95;4.60;;;;;;;;;;5032405;28;20116;-79
2023/01/25 11:16:03;;;;;;;15.55;5.57;;;;;;;;;;5024201;28;20030;-79
2023/01/25 11:18:34;;;;;;;18.05;6.35;;;;;;;;;;5021786;28;20544;-79
2023/01/25 11:21:11;;;;;;;13.27;5.88;;;;;;;;;;5022430;28;20080;-78
2023/01/25 11:23:36;;;;;;;14.35;4.85;;;2.80;99.90;;;;;;5026986;28;20021;-79
2023/01/25 11:26:14;;;;;;;14.25;5.38;;;;;;;;;;5026210;28;20036;-79
2023/01/25 11:28:40;;;;;;;18.05;6.00;;;;;;;;;;5028327;28;20089;-79
2023/01/25 11:31:13;;;;;;;12.27;5.35;;;;;;;;;;5032089;28;20021;-78
2023/01/25 11:33:40;;;;;;;15.90;5.68;;;;;;;;;;5029300;28;20684;-78
2023/01/25 11:36:19;;;;;;;16.98;7.38;;;;;;;;;;5030721;28;20037;-76
2023/01/25 11:38:57;;;;;;;16.55;6.70;;;;;;;;;;5027975;28;20067;-78
2023/01/25 11:41:30;;;;;;;18.85;6.97;;;;;;;;;;5028044;28;20430;-78
2023/01/25 11:44:04;;;;;;;19.02;5.65;;;;;;;;;;5027469;28;20089;-78
2023/01/25 11:46:47;;;;;;;15.25;6.30;;;2.60;99.90;;;;;;5027326;28;20420;-80
2023/01/25 11:49:21;;;;;;;16.88;5.35;;;2.40;99.90;;;;;;5030868;28;20029;-79
2023/01/25 11:51:55;;;;;;;13.95;4.50;;;;;;;;;;5027663;28;20033;-78
2023/01/25 11:54:21;;;;;;;11.40;3.90;;;;;;;;;;5027238;28;20052;-79
2023/01/25 11:57:00;;;;;;;10.38;4.60;;;2.30;99.90;;;;;;5027869;28;20034;-79
2023/01/25 11:59:40;;;;;;;22.55;7.95;;;2.50;99.90;;;;;;5030804;28;20124;-79
2023/01/25 12:02:22;;;;;;;18.42;5.10;;;;;;;;;;5027367;28;20382;-77
2023/01/25 12:04:58;;;;;;;10.15;4.13;;;;;;;;;;5023441;28;20056;-80
2023/01/25 12:07:31;;;;;;;17.48;6.68;;;;;;;;;;5028646;28;20547;-80
2023/01/25 12:10:00;;;;;;;16.75;4.93;;;;;;;;;;5025389;28;20025;-78
2023/01/25 12:12:46;;;;;;;8.98;3.55;;;;;;;;;;5029533;28;20115;-76
2023/01/25 12:15:44;;;;;;;11.07;5.90;;;;;;;;;;5020548;28;20082;-77
2023/01/25 12:18:23;;;;;;;12.80;4.95;;;2.40;99.90;;;;;;5015672;28;20056;-79
2023/01/25 12:21:08;;;;;;;10.90;4.05;;;;;;;;;;5020944;28;20087;-79
2023/01/25 12:23:45;;;;;;;14.77;6.28;;;;;;;;;;5023772;28;20033;-78
2023/01/25 12:26:40;;;;;;;13.77;4.18;;;;;;;;;;5030200;28;20024;-79
2023/01/25 12:29:21;;;;;;;13.68;5.15;;;;;;;;;;5018161;28;20409;-77
2023/01/25 12:31:54;;;;;;;15.60;4.35;;;;;;;;;;5020767;28;20121;-79
2023/01/25 12:34:20;;;;;;;;;;;;;;;;;;5027393;28;20039;-78
2023/01/25 12:36:47;;;;;;;11.65;5.65;;;;;;;;;;5028552;28;20000;-79
2023/01/25 12:39:18;;;;;;;29.25;6.50;;;;;;;;;;5027659;28;20136;-78
2023/01/25 12:41:43;;;;;;;14.80;5.63;;;;;;;;;;5026144;28;20029;-78
2023/01/25 12:44:27;;;;;;;11.55;5.25;;;;;;;;;;5024639;28;20044;-78
2023/01/25 12:47:09;;;;;;;17.63;5.32;;;2.70;99.90;;;;;;5018004;28;20100;-78
2023/01/25 12:49:47;;;;;;;20.80;6.20;;;;;;;;;;5019808;28;20036;-78
2023/01/25 12:52:19;;;;;;;7.97;3.75;;;;;;;;;;5029415;28;20036;-77
2023/01/25 12:54:47;;;;;;;11.00;3.95;;;;;;;;;;5024048;28;20029;-78
2023/01/25 12:57:32;;;;;;;16.38;5.15;;;;;;;;;;5028572;28;20621;-77
2023/01/25 13:00:03;;;;;;;12.85;5.18;;;;;;;;;;5023473;28;20105;-79
2023/01/25 13:02:29;;;;;;;15.02;5.07;;;;;;;;;;5027140;28;20029;-78
2023/01/25 13:05:18;;;;;;;11.93;4.88;;;;;;;;;;5026364;28;20036;-79
2023/01/25 13:07:53;;;;;;;18.75;5.18;;;;;;;;;;5025327;28;20034;-78
2023/01/25 13:10:25;;;;;;;19.63;6.00;;;;;;;;;;5025681;28;20029;-77
2023/01/25 13:13:02;;;;;;;13.85;5.43;;;2.40;99.90;;;;;;5027342;28;20044;-78
2023/01/25 13:15:41;;;;;;;10.20;4.32;;;;;;;;;;5024493;28;20033;-78
2023/01/25 13:18:27;;;;;;;12.43;5.07;;;;;;;;;;5024694;28;20044;-78
2023/01/25 13:20:58;;;;;;;14.90;5.22;;;2.40;99.90;;;;;;5019697;28;20125;-77
2023/01/25 13:23:27;;;;;;;28.35;7.15;;;;;;;;;;5023941;28;20079;-79
2023/01/25 13:26:12;;;;;;;16.98;5.40;;;;;;;;;;5022757;28;20035;-77
2023/01/25 13:28:44;;;;;;;13.05;5.25;;;2.20;99.90;;;;;;5022624;28;20029;-78
2023/01/25 13:31:38;;;;;;;15.45;4.97;;;2.20;99.90;;;;;;5016004;28;20758;-78
2023/01/25 13:34:11;;;;;;;15.57;6.18;;;;;;;;;;5026107;28;20466;-78
2023/01/25 13:36:40;;;;;;;13.50;7.30;;;;;;;;;;5028497;28;20060;-78
2023/01/25 13:39:28;;;;;;;11.63;5.72;;;;;;;;;;5021603;28;20396;-78
2023/01/25 13:41:57;;;;;;;9.00;4.95;;;;;;;;;;5024724;28;20052;-78
2023/01/25 13:44:27;;;;;;;13.70;4.97;;;3.10;99.90;;;;;;5029197;28;20033;-78
2023/01/25 13:46:53;;;;;;;17.50;4.70;;;;;;;;;;5022266;28;20033;-78
2023/01/25 13:49:22;;;;;;;42.40;8.02;;;;;;;;;;5021425;28;20413;-77
2023/01/25 13:51:48;;;;;;;17.50;6.47;;;;;;;;;;5018387;28;20402;-78
2023/01/25 13:54:15;;;;;;;18.52;7.55;;;;;;;;;;5017526;28;20057;-77
2023/01/25 13:56:42;;;;;;;12.90;5.68;;;;;;;;;;5020599;28;20065;-78
2023/01/25 13:59:23;;;;;;;13.80;5.30;;;;;;;;;;5011860;28;20033;-77
2023/01/25 14:01:49;;;;;;;15.95;6.25;;;;;;;;;;5013346;28;20022;-76
2023/01/25 14:04:15;;;;;;;20.48;6.72;;;;;;;;;;5011831;28;20029;-78
2023/01/25 14:06:41;;;;;;;22.25;9.32;;;;;;;;;;5013774;28;20034;-78
2023/01/25 14:09:16;;;;;;;18.23;6.70;;;;;;;;;;5020967;28;20465;-80
2023/01/25 14:12:09;;;;;;;20.05;6.95;;;;;;;;;;5026070;28;20037;-79
2023/01/25 14:14:35;;;;;;;;;;;;;;;;;;5016965;28;20033;-79
2023/01/25 14:17:01;;;;;;;19.15;5.18;;;;;;;;;;5023562;28;20281;-80
2023/01/25 14:19:28;;;;;;;11.88;4.68;;;2.20;99.90;;;;;;5028784;28;20030;-79
2023/01/25 14:22:13;;;;;;;11.88;5.88;;;;;;;;;;5029623;28;20065;-79
2023/01/25 14:24:39;;;;;;;13.43;6.57;;;;;;;;;;5027742;28;20029;-77
2023/01/25 14:27:06;;;;;;;15.35;6.25;;;;;;;;;;5025482;28;20061;-78
2023/01/25 14:29:34;;;;;;;11.07;4.68;;;;;;;;;;5028075;28;20044;-78
2023/01/25 14:32:00;;;;;;;12.75;6.15;;;;;;;;;;5029311;28;20026;-78